San Francisco, CA

3:55 AM PDT on July 28, 2016 (GMT -0700)
San Francisco International | | Change Station

Elev 16 ft 37.62 °N, 122.37 °W | Updated 59 minutes ago

Scattered Clouds
Scattered Clouds
54 °F
Feels Like 54 °F
N
12
Wind Variable Wind from WNW

Today
High -- | Low -- °F
--% Chance of Precip.
Yesterday
High -- | Low -- °F
Precip. -- in
Pressure 29.91 in
Visibility 10.0 miles
Clouds Few 400 ft
Scattered Clouds 16000 ft
Dew Point 51 °F
Humidity 90%
Rainfall 0.00 in
Snow Depth Not available.
6:10 AM 8:20 PM
Waning Crescent, 33% visible
METAR KSFO 280956Z 30010KT 10SM FEW004 SCT160 12/11 A2991 RMK AO2 SLP127 T01220106
Pressure 29.91 in
Visibility 10.0 miles
Clouds Few 400 ft
Scattered Clouds 16000 ft
Dew Point 51 °F
Humidity 90%
Rainfall 0.00 in
Snow Depth Not available.
6:10 AM 8:20 PM
Waning Crescent, 33% visible
METAR KSFO 280956Z 30010KT 10SM FEW004 SCT160 12/11 A2991 RMK AO2 SLP127 T01220106

10-Day Weather Forecast

Almanac

Astronomy

Jul. 28, 2016 Rise Set
Actual Time
Civil Twilight
Nautical Twilight
Astronomical Twilight
Moon
Length of Visible Light
Length of Day
Tomorrow will be .
, % of the Moon is Illuminated

Today's Extremes

State Highs State Lows

Community

WunderPhotos

Upload Photos

1,928,082 photos uploaded!

WunderBlog® & News

Nearby

Air Quality

  Air Quality AQ Index Pollutant
Not available.

Snow Depth

Station Depth Elevation

Earthquake Activity

City Distance Mag. Time & Date
Minimum magnitude displayed is 2.5.

Coastal Water Temperatures

Place Temperature

Stations

Nearby Weather Stations

Station Location Temp. Windchill Dew Point Humidity Wind Precip. Elev Updated Type
                   

Watches & Warnings

There are currently no watches in effect.